createdAt,value
2023-02-22T00:01:35.646Z,92.90
2023-02-22T00:04:06.559Z,92.70
2023-02-22T00:06:34.070Z,92.80
2023-02-22T00:09:02.542Z,92.80
2023-02-22T00:11:31.463Z,93.00
2023-02-22T00:13:58.404Z,93.10
2023-02-22T00:16:26.174Z,93.10
2023-02-22T00:18:53.773Z,93.30
2023-02-22T00:21:21.637Z,93.30
2023-02-22T00:23:49.415Z,93.00
2023-02-22T00:26:21.476Z,92.90
2023-02-22T00:28:51.266Z,92.90
2023-02-22T00:31:19.535Z,92.90
2023-02-22T00:33:46.531Z,93.00
2023-02-22T00:36:14.376Z,93.20
2023-02-22T00:38:42.176Z,93.60
2023-02-22T00:41:09.404Z,94.00
2023-02-22T00:43:36.397Z,94.40
2023-02-22T00:46:03.593Z,94.10
2023-02-22T00:48:30.406Z,94.00
2023-02-22T00:50:57.329Z,94.00
2023-02-22T00:53:25.328Z,94.10
2023-02-22T00:55:52.562Z,94.20
2023-02-22T00:58:19.467Z,94.30
2023-02-22T01:00:47.041Z,94.10
2023-02-22T01:03:17.055Z,94.20
2023-02-22T01:05:44.622Z,94.30
2023-02-22T01:08:13.006Z,94.50
2023-02-22T01:10:40.681Z,94.60
2023-02-22T01:13:09.487Z,94.80
2023-02-22T01:15:38.322Z,94.90
2023-02-22T01:18:05.764Z,95.10
2023-02-22T01:20:33.023Z,95.20
2023-02-22T01:23:03.450Z,94.90
2023-02-22T01:25:31.508Z,94.80
2023-02-22T01:27:59.955Z,94.70
2023-02-22T01:30:29.468Z,94.80
2023-02-22T01:32:56.477Z,94.90
2023-02-22T01:35:27.870Z,94.90
2023-02-22T01:37:55.227Z,95.00
2023-02-22T01:40:49.591Z,94.90
2023-02-22T01:43:18.977Z,94.90
2023-02-22T01:45:52.977Z,94.80
2023-02-22T01:48:34.187Z,94.80
2023-02-22T01:51:10.887Z,94.90
2023-02-22T01:53:43.606Z,95.00
2023-02-22T01:56:10.903Z,95.00
2023-02-22T01:58:40.218Z,95.20
2023-02-22T02:01:08.048Z,95.20
2023-02-22T02:03:37.404Z,95.10
2023-02-22T02:06:11.858Z,95.10
2023-02-22T02:08:49.838Z,95.40
2023-02-22T02:11:19.751Z,95.30
2023-02-22T02:13:49.457Z,95.30
2023-02-22T02:16:16.623Z,95.20
2023-02-22T02:18:43.372Z,95.50
2023-02-22T02:21:49.914Z,95.10
2023-02-22T02:24:51.540Z,95.50
2023-02-22T02:27:23.270Z,95.60
2023-02-22T02:30:22.331Z,95.50
2023-02-22T02:33:03.599Z,95.50
2023-02-22T02:35:46.713Z,95.50
2023-02-22T02:38:39.415Z,95.70
2023-02-22T02:41:16.599Z,95.70
2023-02-22T02:44:06.841Z,95.60
2023-02-22T02:46:35.654Z,95.90
2023-02-22T02:49:11.133Z,96.10
2023-02-22T02:51:44.243Z,95.80
2023-02-22T02:54:13.362Z,95.90
2023-02-22T02:56:41.489Z,95.80
2023-02-22T02:59:43.908Z,95.80
2023-02-22T03:02:19.539Z,95.90
2023-02-22T03:05:09.297Z,95.80
2023-02-22T03:07:51.143Z,96.10
2023-02-22T03:10:21.380Z,95.90
2023-02-22T03:13:01.846Z,96.00
2023-02-22T03:15:43.800Z,96.30
2023-02-22T03:18:18.400Z,96.30
2023-02-22T03:20:53.101Z,96.20
2023-02-22T03:23:32.751Z,96.40
2023-02-22T03:26:07.322Z,96.50
2023-02-22T03:28:36.902Z,96.50
2023-02-22T03:31:21.753Z,96.40
2023-02-22T03:34:14.957Z,96.50
2023-02-22T03:36:50.018Z,96.40
2023-02-22T03:39:20.301Z,96.50
2023-02-22T03:41:51.514Z,96.40
2023-02-22T03:44:24.680Z,96.30
2023-02-22T03:46:54.470Z,96.20
2023-02-22T03:49:29.874Z,96.20
2023-02-22T03:51:57.158Z,96.30
2023-02-22T03:54:24.086Z,96.30
2023-02-22T03:56:56.907Z,96.30
2023-02-22T03:59:27.465Z,96.70
2023-02-22T04:01:56.725Z,96.30
2023-02-22T04:04:24.872Z,96.30
2023-02-22T04:06:52.578Z,96.20
2023-02-22T04:09:19.398Z,96.30
2023-02-22T04:11:46.936Z,96.30
2023-02-22T04:14:14.235Z,96.20
2023-02-22T04:16:41.107Z,96.30
2023-02-22T04:19:07.909Z,96.20
2023-02-22T04:21:34.905Z,96.10
2023-02-22T04:24:01.677Z,96.20
2023-02-22T04:26:28.570Z,96.20
2023-02-22T04:28:55.435Z,96.30
2023-02-22T04:31:22.248Z,96.10
2023-02-22T04:33:49.063Z,96.20
2023-02-22T04:36:16.240Z,96.30
2023-02-22T04:38:44.410Z,96.30
2023-02-22T04:41:11.383Z,96.40
2023-02-22T04:43:38.236Z,96.40
2023-02-22T04:46:05.230Z,96.20
2023-02-22T04:48:32.308Z,96.10
2023-02-22T04:50:59.025Z,96.20
2023-02-22T04:53:25.842Z,96.10
2023-02-22T04:55:52.664Z,96.20
2023-02-22T04:58:19.518Z,96.20
2023-02-22T05:00:46.290Z,96.20
2023-02-22T05:03:13.175Z,96.20
2023-02-22T05:05:39.973Z,96.20
2023-02-22T05:08:06.742Z,96.20
2023-02-22T05:10:33.999Z,96.20
2023-02-22T05:13:01.282Z,96.30
2023-02-22T05:15:29.032Z,96.30
2023-02-22T05:17:55.806Z,96.40
2023-02-22T05:20:29.143Z,96.50
2023-02-22T05:22:57.700Z,96.60
2023-02-22T05:25:25.125Z,96.60
2023-02-22T05:27:53.760Z,96.70
2023-02-22T05:30:24.352Z,96.70
2023-02-22T05:32:51.923Z,96.80
2023-02-22T05:35:21.138Z,96.90
2023-02-22T05:37:47.853Z,96.90
2023-02-22T05:40:14.811Z,96.90
2023-02-22T05:42:42.069Z,96.80
2023-02-22T05:45:09.276Z,97.00
2023-02-22T05:47:35.909Z,97.00
2023-02-22T05:50:02.662Z,97.10
2023-02-22T05:52:29.391Z,97.10
2023-02-22T05:54:56.159Z,97.10
2023-02-22T05:57:22.914Z,97.00
2023-02-22T05:59:49.809Z,97.10
2023-02-22T06:02:16.840Z,97.10
2023-02-22T06:04:47.096Z,97.10
2023-02-22T06:07:14.954Z,97.30
2023-02-22T06:09:41.818Z,97.20
2023-02-22T06:12:09.130Z,97.20
2023-02-22T06:14:36.425Z,97.40
2023-02-22T06:17:05.338Z,97.40
2023-02-22T06:19:32.160Z,97.50
2023-02-22T06:22:00.183Z,97.50
2023-02-22T06:24:26.885Z,97.40
2023-02-22T06:27:01.739Z,97.30
2023-02-22T06:29:29.568Z,97.40
2023-02-22T06:31:56.629Z,97.40
2023-02-22T06:34:23.422Z,97.50
2023-02-22T06:36:50.250Z,97.60
2023-02-22T06:39:18.861Z,97.50
2023-02-22T06:41:47.025Z,97.40
2023-02-22T06:44:14.878Z,97.40
2023-02-22T06:46:51.187Z,97.50
2023-02-22T06:49:18.840Z,97.40
2023-02-22T06:51:46.633Z,97.40
2023-02-22T06:54:13.413Z,97.40
2023-02-22T06:56:40.076Z,97.40
2023-02-22T06:59:06.802Z,97.40
2023-02-22T07:01:33.542Z,97.40
2023-02-22T07:04:00.431Z,97.30
2023-02-22T07:06:27.356Z,97.40
2023-02-22T07:08:54.753Z,97.20
2023-02-22T07:11:21.516Z,97.30
2023-02-22T07:13:48.217Z,97.30
2023-02-22T07:16:15.006Z,97.30
2023-02-22T07:18:41.708Z,97.40
2023-02-22T07:21:08.440Z,97.30
2023-02-22T07:23:35.181Z,97.40
2023-02-22T07:26:03.383Z,97.40
2023-02-22T07:28:30.095Z,97.40
2023-02-22T07:30:56.981Z,97.30
2023-02-22T07:33:23.694Z,97.40
2023-02-22T07:35:51.202Z,97.30
2023-02-22T07:38:19.945Z,97.20
2023-02-22T07:40:47.464Z,97.20
2023-02-22T07:43:14.261Z,97.20
2023-02-22T07:45:41.254Z,97.60
2023-02-22T07:48:08.350Z,97.20
2023-02-22T07:50:35.886Z,97.10
2023-02-22T07:53:05.331Z,97.00
2023-02-22T07:55:33.390Z,97.10
2023-02-22T07:58:02.984Z,97.10
2023-02-22T08:00:32.063Z,97.10
2023-02-22T08:03:00.700Z,97.20
2023-02-22T08:05:29.129Z,97.20
2023-02-22T08:07:56.368Z,97.30
2023-02-22T08:10:24.967Z,97.20
2023-02-22T08:12:53.497Z,97.30
2023-02-22T08:15:28.588Z,97.20
2023-02-22T08:17:56.311Z,97.00
2023-02-22T08:20:23.295Z,97.00
2023-02-22T08:22:50.915Z,97.00
2023-02-22T08:25:19.265Z,97.00
2023-02-22T08:27:46.562Z,96.90
2023-02-22T08:30:20.668Z,96.90
2023-02-22T08:32:48.305Z,96.80
2023-02-22T08:35:16.896Z,96.70
2023-02-22T08:37:49.346Z,96.60
2023-02-22T08:40:18.280Z,96.70
2023-02-22T08:42:45.534Z,96.50
2023-02-22T08:45:13.474Z,96.20
2023-02-22T08:47:41.406Z,96.20
2023-02-22T08:50:09.246Z,95.80
2023-02-22T08:52:36.054Z,95.80
2023-02-22T08:55:02.830Z,95.50
2023-02-22T08:57:29.555Z,95.20
2023-02-22T08:59:56.230Z,94.90
2023-02-22T09:02:23.117Z,94.80
2023-02-22T09:04:50.209Z,94.60
2023-02-22T09:07:17.837Z,94.40
2023-02-22T09:09:45.190Z,94.30
2023-02-22T09:12:12.290Z,94.20
2023-02-22T09:14:39.214Z,94.20
2023-02-22T09:17:06.039Z,94.00
2023-02-22T09:19:32.889Z,93.80
2023-02-22T09:22:00.542Z,93.80
2023-02-22T09:24:27.786Z,93.90
2023-02-22T09:26:54.719Z,94.00
2023-02-22T09:29:24.009Z,94.10
2023-02-22T09:31:52.314Z,94.10
2023-02-22T09:34:20.245Z,94.20
2023-02-22T09:36:48.191Z,94.50
2023-02-22T09:39:17.329Z,94.10
2023-02-22T09:42:03.301Z,94.00
2023-02-22T09:44:53.825Z,94.20
2023-02-22T09:47:32.440Z,94.20
2023-02-22T09:50:24.642Z,94.30
2023-02-22T09:53:15.374Z,94.50
2023-02-22T09:55:50.505Z,94.50
2023-02-22T09:58:34.448Z,94.30
2023-02-22T10:01:27.223Z,94.20
2023-02-22T10:04:18.749Z,94.20
2023-02-22T10:07:06.642Z,93.90
2023-02-22T10:09:44.894Z,93.70
2023-02-22T10:12:32.914Z,93.40
2023-02-22T10:15:16.119Z,93.10
2023-02-22T10:18:15.771Z,92.80
2023-02-22T10:21:00.482Z,92.50
2023-02-22T10:23:36.474Z,92.30
2023-02-22T10:26:17.098Z,92.00
2023-02-22T10:29:23.118Z,91.80
2023-02-22T10:31:58.284Z,91.50
2023-02-22T10:34:28.413Z,91.20
2023-02-22T10:37:16.534Z,91.20
2023-02-22T10:39:45.617Z,91.10
2023-02-22T10:42:12.530Z,90.90
2023-02-22T10:44:40.620Z,91.00
2023-02-22T10:47:11.910Z,91.30
2023-02-22T10:49:43.720Z,90.80
2023-02-22T10:52:19.414Z,90.50
2023-02-22T10:54:49.078Z,90.50
2023-02-22T10:57:22.844Z,90.60
2023-02-22T10:59:52.007Z,90.60
2023-02-22T11:02:33.807Z,90.50
2023-02-22T11:05:04.314Z,90.60
2023-02-22T11:07:34.999Z,90.50
2023-02-22T11:10:10.837Z,90.50
2023-02-22T11:12:40.624Z,90.50
2023-02-22T11:15:26.984Z,90.60
2023-02-22T11:17:57.433Z,90.60
2023-02-22T11:20:34.423Z,90.60
2023-02-22T11:23:03.984Z,90.80
2023-02-22T11:25:42.579Z,90.40
2023-02-22T11:28:31.010Z,90.30
2023-02-22T11:31:09.069Z,90.40
2023-02-22T11:33:37.461Z,90.50
2023-02-22T11:36:09.333Z,90.60
2023-02-22T11:38:52.980Z,90.70
2023-02-22T11:41:26.143Z,90.50
2023-02-22T11:43:54.369Z,90.40
2023-02-22T11:46:27.595Z,90.30
2023-02-22T11:48:57.160Z,90.30
2023-02-22T11:51:33.994Z,90.30
2023-02-22T11:54:06.629Z,90.30
2023-02-22T11:56:38.298Z,90.30
2023-02-22T11:59:36.584Z,90.20
2023-02-22T12:02:51.833Z,90.20
2023-02-22T12:06:08.232Z,90.30
2023-02-22T12:08:56.966Z,90.10
2023-02-22T12:11:48.139Z,90.30
2023-02-22T12:14:31.836Z,90.20
2023-02-22T12:17:13.859Z,90.20
2023-02-22T12:19:46.148Z,90.10
2023-02-22T12:22:19.704Z,89.90
2023-02-22T12:25:09.877Z,89.20
2023-02-22T12:27:43.481Z,89.10
2023-02-22T12:30:24.076Z,88.90
2023-02-22T12:32:53.381Z,88.70
2023-02-22T12:35:28.928Z,88.30
2023-02-22T12:38:10.062Z,87.90
2023-02-22T12:41:18.512Z,87.50
2023-02-22T12:43:53.750Z,87.00
2023-02-22T12:46:20.466Z,87.20
2023-02-22T12:48:53.434Z,87.20
2023-02-22T12:51:34.570Z,86.70
2023-02-22T12:54:23.199Z,86.30
2023-02-22T12:57:10.118Z,85.80
2023-02-22T13:00:02.199Z,85.80
2023-02-22T13:02:37.092Z,85.10
2023-02-22T13:05:04.277Z,85.00
2023-02-22T13:07:34.042Z,84.50
2023-02-22T13:10:18.753Z,84.30
2023-02-22T13:12:52.417Z,84.00
2023-02-22T13:15:30.442Z,83.60
2023-02-22T13:18:10.574Z,83.90
2023-02-22T13:21:06.804Z,83.80
2023-02-22T13:23:48.806Z,83.90
2023-02-22T13:26:25.084Z,83.60
2023-02-22T13:29:02.938Z,83.10
2023-02-22T13:31:40.665Z,82.30
2023-02-22T13:34:43.014Z,81.50
2023-02-22T13:37:56.632Z,81.30
2023-02-22T13:40:44.853Z,80.60
2023-02-22T13:43:44.856Z,80.20
2023-02-22T13:46:33.285Z,79.80
2023-02-22T13:49:14.868Z,77.90
2023-02-22T13:51:50.603Z,78.00
2023-02-22T13:54:20.113Z,78.20
2023-02-22T13:56:49.319Z,78.70
2023-02-22T13:59:35.094Z,78.50
2023-02-22T14:02:05.116Z,78.10
2023-02-22T14:04:31.808Z,77.10
2023-02-22T14:07:00.821Z,77.10
2023-02-22T14:09:52.511Z,77.40
2023-02-22T14:12:33.530Z,77.60
2023-02-22T14:15:28.310Z,77.80
2023-02-22T14:18:01.111Z,78.00
2023-02-22T14:20:35.235Z,78.60
2023-02-22T14:23:28.946Z,79.30
2023-02-22T14:25:57.195Z,80.10
2023-02-22T14:28:42.534Z,80.90
2023-02-22T14:31:34.472Z,81.30
2023-02-22T14:34:09.301Z,81.80
2023-02-22T14:36:54.598Z,82.40
2023-02-22T14:39:39.612Z,82.80
2023-02-22T14:42:27.464Z,83.40
2023-02-22T14:45:17.095Z,84.00
2023-02-22T14:48:14.334Z,84.60
2023-02-22T14:50:41.131Z,84.90
2023-02-22T14:53:31.734Z,85.30
2023-02-22T14:56:06.979Z,85.80
2023-02-22T14:58:42.645Z,86.20
2023-02-22T15:01:33.952Z,86.40
2023-02-22T15:04:31.083Z,87.00
2023-02-22T15:07:00.859Z,87.40
2023-02-22T15:09:33.625Z,88.10
2023-02-22T15:12:04.648Z,88.60
2023-02-22T15:14:38.009Z,89.10
2023-02-22T15:17:19.759Z,89.50
2023-02-22T15:19:48.740Z,89.80
2023-02-22T15:22:25.055Z,90.00
2023-02-22T15:25:02.836Z,90.20
2023-02-22T15:27:29.953Z,90.30
2023-02-22T15:30:04.519Z,90.40
2023-02-22T15:32:31.586Z,90.50
2023-02-22T15:35:23.905Z,90.70
2023-02-22T15:38:02.212Z,90.70
2023-02-22T15:40:33.279Z,90.80
2023-02-22T15:43:02.814Z,90.90
2023-02-22T15:45:32.315Z,91.00
2023-02-22T15:47:59.173Z,91.10
2023-02-22T15:50:36.684Z,91.10
2023-02-22T15:53:08.368Z,91.20
2023-02-22T15:55:38.059Z,91.30
2023-02-22T15:58:23.761Z,91.40
2023-02-22T16:01:04.496Z,91.50
2023-02-22T16:03:44.776Z,91.60
2023-02-22T16:06:25.066Z,91.60
2023-02-22T16:08:55.431Z,91.70
2023-02-22T16:11:31.090Z,91.70
2023-02-22T16:14:02.312Z,91.80
2023-02-22T16:16:32.197Z,91.90
2023-02-22T16:19:17.793Z,91.90
2023-02-22T16:22:02.782Z,92.00
2023-02-22T16:24:35.604Z,92.20
2023-02-22T16:27:15.203Z,92.30
2023-02-22T16:29:42.755Z,92.30
2023-02-22T16:32:09.702Z,92.30
2023-02-22T16:34:36.480Z,92.50
2023-02-22T16:37:03.273Z,92.70
2023-02-22T16:39:32.476Z,92.90
2023-02-22T16:42:01.899Z,93.20
2023-02-22T16:44:29.324Z,93.30
2023-02-22T16:46:59.763Z,93.40
2023-02-22T16:49:27.244Z,93.50
2023-02-22T16:52:07.189Z,93.60
2023-02-22T16:54:39.827Z,93.60
2023-02-22T16:57:06.705Z,93.60
2023-02-22T16:59:38.555Z,93.70
2023-02-22T17:02:07.699Z,93.80
2023-02-22T17:04:34.791Z,93.90
2023-02-22T17:07:05.148Z,94.00
2023-02-22T17:09:32.918Z,94.10
2023-02-22T17:12:00.292Z,94.10
2023-02-22T17:14:32.063Z,94.10
2023-02-22T17:17:00.203Z,94.10
2023-02-22T17:19:27.409Z,94.20
2023-02-22T17:21:54.187Z,94.20
2023-02-22T17:24:24.285Z,93.90
2023-02-22T17:26:57.334Z,94.30
2023-02-22T17:29:24.358Z,94.50
2023-02-22T17:31:52.829Z,94.50
2023-02-22T17:34:19.932Z,94.60
2023-02-22T17:36:46.741Z,94.60
2023-02-22T17:39:13.711Z,94.70
2023-02-22T17:41:41.010Z,94.70
2023-02-22T17:44:08.007Z,94.70
2023-02-22T17:46:36.499Z,94.70
2023-02-22T17:49:03.376Z,94.80
2023-02-22T17:51:30.194Z,94.80
2023-02-22T17:53:57.078Z,94.80
2023-02-22T17:56:23.917Z,94.80
2023-02-22T17:58:53.953Z,94.90
2023-02-22T18:01:28.632Z,94.90
2023-02-22T18:03:57.918Z,94.90
2023-02-22T18:06:28.444Z,94.70
2023-02-22T18:08:56.988Z,94.70
2023-02-22T18:11:28.020Z,94.70
2023-02-22T18:13:58.815Z,94.50
2023-02-22T18:16:26.682Z,94.40
2023-02-22T18:18:56.504Z,94.30
2023-02-22T18:21:24.122Z,94.30
2023-02-22T18:23:50.839Z,94.30
2023-02-22T18:26:19.995Z,94.30
2023-02-22T18:28:50.753Z,94.30
2023-02-22T18:31:19.478Z,94.40
2023-02-22T18:33:49.347Z,94.40
2023-02-22T18:36:17.726Z,94.40
2023-02-22T18:38:44.727Z,94.60
2023-02-22T18:41:17.000Z,94.60
2023-02-22T18:43:46.411Z,94.60
2023-02-22T18:46:21.920Z,94.60
2023-02-22T18:48:52.111Z,94.60
2023-02-22T18:51:18.826Z,94.60
2023-02-22T18:53:47.757Z,94.50
2023-02-22T18:56:21.592Z,94.60
2023-02-22T18:58:52.897Z,94.60
2023-02-22T19:01:20.616Z,94.60
2023-02-22T19:03:47.421Z,94.70
2023-02-22T19:06:16.518Z,94.70
2023-02-22T19:08:45.178Z,94.80
2023-02-22T19:11:21.880Z,94.70
2023-02-22T19:13:51.744Z,94.70
2023-02-22T19:16:20.690Z,94.80
2023-02-22T19:18:48.838Z,94.80
2023-02-22T19:21:16.315Z,94.90
2023-02-22T19:23:47.538Z,94.90
2023-02-22T19:26:20.839Z,94.70
2023-02-22T19:28:48.654Z,94.60
2023-02-22T19:31:17.760Z,94.60
2023-02-22T19:33:46.240Z,94.90
2023-02-22T19:36:14.622Z,95.10
2023-02-22T19:38:41.674Z,95.00
2023-02-22T19:41:17.651Z,95.10
2023-02-22T19:43:46.175Z,95.20
2023-02-22T19:46:13.578Z,95.20
2023-02-22T19:48:41.621Z,95.30
2023-02-22T19:51:10.609Z,95.40
2023-02-22T19:53:40.102Z,95.40
2023-02-22T19:56:09.708Z,95.40
2023-02-22T19:58:38.927Z,95.40
2023-02-22T20:01:16.396Z,95.40
2023-02-22T20:03:44.176Z,95.40
2023-02-22T20:06:11.891Z,95.60
2023-02-22T20:08:42.316Z,95.60
2023-02-22T20:11:11.012Z,95.80
2023-02-22T20:13:41.605Z,95.80
2023-02-22T20:16:10.083Z,95.80
2023-02-22T20:18:37.223Z,95.80
2023-02-22T20:21:09.619Z,95.90
2023-02-22T20:23:36.677Z,95.90
2023-02-22T20:26:04.557Z,96.00
2023-02-22T20:28:31.454Z,95.80
2023-02-22T20:30:58.561Z,95.90
2023-02-22T20:33:26.705Z,95.90
2023-02-22T20:35:54.128Z,95.70
2023-02-22T20:38:21.747Z,95.70
2023-02-22T20:40:48.736Z,95.80
2023-02-22T20:43:15.717Z,96.00
2023-02-22T20:45:42.937Z,96.10
2023-02-22T20:48:12.398Z,96.10
2023-02-22T20:50:39.628Z,96.10
2023-02-22T20:53:06.525Z,96.20
2023-02-22T20:55:33.645Z,96.10
2023-02-22T20:58:02.259Z,96.10
2023-02-22T21:00:29.242Z,96.50
2023-02-22T21:02:56.159Z,96.20
2023-02-22T21:05:23.084Z,96.20
2023-02-22T21:07:50.030Z,96.30
2023-02-22T21:10:21.642Z,96.40
2023-02-22T21:12:49.197Z,96.50
2023-02-22T21:15:17.099Z,97.00
2023-02-22T21:17:47.676Z,96.70
2023-02-22T21:20:16.590Z,96.70
2023-02-22T21:22:45.097Z,96.70
2023-02-22T21:25:13.959Z,96.70
2023-02-22T21:27:42.081Z,96.80
2023-02-22T21:30:09.565Z,96.80
2023-02-22T21:32:36.415Z,96.80
2023-02-22T21:35:03.422Z,96.70
2023-02-22T21:37:30.332Z,96.70
2023-02-22T21:39:59.009Z,96.90
2023-02-22T21:42:25.889Z,96.90
2023-02-22T21:44:56.249Z,97.10
2023-02-22T21:47:23.861Z,97.00
2023-02-22T21:49:50.679Z,97.10
2023-02-22T21:52:18.452Z,97.00
2023-02-22T21:54:45.174Z,97.00
2023-02-22T21:57:11.950Z,97.00
2023-02-22T21:59:39.415Z,97.00
2023-02-22T22:02:06.262Z,97.20
2023-02-22T22:04:34.950Z,97.20
2023-02-22T22:07:03.940Z,97.20
2023-02-22T22:09:37.277Z,97.20
2023-02-22T22:12:10.652Z,97.10
2023-02-22T22:14:37.944Z,97.00
2023-02-22T22:17:07.146Z,97.20
2023-02-22T22:19:41.636Z,97.20
2023-02-22T22:22:08.642Z,97.20
2023-02-22T22:24:35.495Z,97.30
2023-02-22T22:27:06.558Z,97.30
2023-02-22T22:29:34.494Z,97.40
2023-02-22T22:32:02.016Z,97.30
2023-02-22T22:34:33.942Z,97.40
2023-02-22T22:37:00.741Z,97.40
2023-02-22T22:39:27.661Z,97.40
2023-02-22T22:41:54.623Z,97.30
2023-02-22T22:44:22.434Z,97.30
2023-02-22T22:46:50.344Z,97.30
2023-02-22T22:49:17.194Z,97.60
2023-02-22T22:51:47.411Z,97.70
2023-02-22T22:54:14.601Z,97.70
2023-02-22T22:56:41.406Z,97.80
2023-02-22T22:59:09.560Z,97.80
2023-02-22T23:01:40.518Z,97.70
2023-02-22T23:04:10.707Z,98.00
2023-02-22T23:06:40.816Z,97.90
2023-02-22T23:09:20.074Z,97.90
2023-02-22T23:11:50.893Z,97.80
2023-02-22T23:14:19.609Z,97.80
2023-02-22T23:16:50.556Z,98.00
2023-02-22T23:19:19.337Z,98.20
2023-02-22T23:21:47.961Z,98.20
2023-02-22T23:24:16.630Z,98.20
2023-02-22T23:26:48.804Z,98.30
2023-02-22T23:29:21.364Z,98.20
2023-02-22T23:31:49.742Z,98.30
2023-02-22T23:34:17.963Z,98.30
2023-02-22T23:36:44.629Z,98.40
2023-02-22T23:39:12.202Z,98.40
2023-02-22T23:41:38.951Z,98.40
2023-02-22T23:44:13.445Z,98.40
2023-02-22T23:46:41.403Z,98.50
2023-02-22T23:49:09.934Z,98.60
2023-02-22T23:51:42.923Z,98.50
2023-02-22T23:54:12.442Z,98.50
2023-02-22T23:56:40.470Z,98.50
2023-02-22T23:59:13.613Z,98.70
